Storla, South Dakota
Current Conditions -  °F | °C
As of 9:53 PM on Friday 24 Oct 2014 (Local Time) from KMHE Reporting Station
Haze Haze  
Wind Chill: 57°   Ceiling: Unl
Heat Index: 57°   Visibility: 6mi
Dew Point: 39°   Wind: 7mph
Humidity: 51%   Direction: 290°WNW
Pressure: 30"   Gusts: NA
Location:  43.8945°N, 98.2111°W
Report Text: KMHE 250253Z AUTO 29006KT 6SM HZ CLR 14/04 A3000 RMK AO2 SLP161 T01390039 $
Loading
Personal Weather Stations






























Interactive Weather Map
Tropical Storm Tracking
New forecast layout! Learn more

10-Day Weather Forecast

Advertisements
Track Severe Weather on mobile